Portada
METAR-TAF:

METAR-TAF

Aeroports :

Qaisumah, Aràbia Saudita

latitud: 28-19N, longitud: 046-07E, altitud: 358 m

Observació

L'informe es va fer fa 1 hora i 2 minuts, a les 17:00 UTC
Vent 6 kt del Nord/Nord-Oest
Temperatura 42°C
Humitat 9%
Pressió 999 hPa
Visibilitat 10 km o més
sense núvols per sota de 1500 mi sense presència de cumulonimbus.

METAR: OEPA 111700Z 34006KT CAVOK 42/02 Q0999 NOSIG

Hora: 21:02 (18:02 UTC)

Pronòstic

L'informe es va fer fa 6 hores i 2 minuts, a les 12:00 UTC
Pronòstic vàlid del 11 a les 12 UTC al 12 a les 18 UTC
Vent 14 kt del Nord/Nord-Oest
Visibilitat: 6000 m
Evolucionant progressivament
l' 11 a les 20 UTC al 11 a les 22 UTC
Vent 14 kt del Est/Nord-Est

TAF: OEPA 111200Z 1112/1218 33014KT 6000 NSC BECMG 1120/1122 06014KT

Observacions i pronòstics meteorològics de més de 4000 aeroports (METAR i TAF).

Les estacions disponibles són els punts grocs i vermells al mapa.

Posi el ratolí al punt desitjat per veure el nom de l'estació.

Feu clic per veure les observacions i els pronòstics meteorològics.

Per canviar el mapa: feu clic els botons verds amb una creu de color negre per apropar; al botó verd amb un guió per allunyar la imatge; o en les fletxes verdes per a mapes adjacents.


METAR-TAF: